createdAt,value
2022-11-02T00:01:14.474Z,0
2022-11-02T00:02:30.737Z,0
2022-11-02T00:03:46.918Z,0
2022-11-02T00:05:03.031Z,0
2022-11-02T00:06:19.224Z,0
2022-11-02T00:07:35.489Z,0
2022-11-02T00:08:51.683Z,0
2022-11-02T00:10:07.858Z,0
2022-11-02T00:11:24.059Z,0
2022-11-02T00:12:40.159Z,0
2022-11-02T00:13:55.437Z,0
2022-11-02T00:15:11.560Z,0
2022-11-02T00:16:27.822Z,0
2022-11-02T00:17:43.949Z,0
2022-11-02T00:19:00.201Z,0
2022-11-02T00:20:16.327Z,0
2022-11-02T00:21:32.581Z,0
2022-11-02T00:22:47.797Z,0
2022-11-02T00:24:02.994Z,0
2022-11-02T00:25:19.194Z,0
2022-11-02T00:26:35.307Z,0
2022-11-02T00:27:51.000Z,0
2022-11-02T00:29:07.752Z,0
2022-11-02T00:30:23.869Z,0
2022-11-02T00:31:40.147Z,0
2022-11-02T00:32:56.251Z,0
2022-11-02T00:34:12.525Z,0
2022-11-02T00:35:28.624Z,0
2022-11-02T00:36:44.903Z,0
2022-11-02T00:38:01.089Z,0
2022-11-02T00:39:16.286Z,0
2022-11-02T00:40:32.492Z,0
2022-11-02T00:41:48.671Z,0
2022-11-02T00:43:04.859Z,0
2022-11-02T00:44:20.976Z,0
2022-11-02T00:45:37.241Z,0
2022-11-02T00:46:53.439Z,0
2022-11-02T00:48:09.546Z,0
2022-11-02T00:49:24.841Z,0
2022-11-02T00:50:39.963Z,0
2022-11-02T00:51:56.237Z,0
2022-11-02T00:53:12.410Z,0
2022-11-02T00:54:28.607Z,0
2022-11-02T00:55:44.797Z,0
2022-11-02T00:57:00.901Z,0
2022-11-02T00:58:17.082Z,0
2022-11-02T00:59:33.367Z,0
2022-11-02T01:00:49.555Z,0
2022-11-02T01:02:05.759Z,0
2022-11-02T01:03:21.933Z,0
2022-11-02T01:04:38.126Z,0
2022-11-02T01:05:54.219Z,0
2022-11-02T01:07:09.503Z,0
2022-11-02T01:08:25.698Z,0
2022-11-02T01:09:41.811Z,0
2022-11-02T01:10:58.079Z,0
2022-11-02T01:12:14.277Z,0
2022-11-02T01:13:30.464Z,0
2022-11-02T01:14:46.645Z,0
2022-11-02T01:16:01.780Z,0
2022-11-02T01:17:16.976Z,0
2022-11-02T01:18:32.207Z,0
2022-11-02T01:19:47.488Z,0
2022-11-02T01:21:02.611Z,0
2022-11-02T01:22:17.820Z,0
2022-11-02T01:23:34.090Z,0
2022-11-02T01:24:50.192Z,0
2022-11-02T01:26:05.420Z,0
2022-11-02T01:27:20.717Z,0
2022-11-02T01:28:36.802Z,0
2022-11-02T01:29:52.987Z,0
2022-11-02T01:31:09.275Z,0
2022-11-02T01:32:25.471Z,0
2022-11-02T01:33:41.656Z,0
2022-11-02T01:34:57.835Z,0
2022-11-02T01:36:13.949Z,0
2022-11-02T01:37:30.217Z,0
2022-11-02T01:38:46.412Z,0
2022-11-02T01:40:02.593Z,0
2022-11-02T01:41:18.783Z,0
2022-11-02T01:42:34.986Z,0
2022-11-02T01:43:50.097Z,0
2022-11-02T01:45:06.380Z,0
2022-11-02T01:46:22.469Z,0
2022-11-02T01:47:38.661Z,0
2022-11-02T01:48:54.933Z,0
2022-11-02T01:50:11.122Z,0
2022-11-02T01:51:27.323Z,0
2022-11-02T01:52:42.435Z,0
2022-11-02T01:53:57.733Z,0
2022-11-02T01:55:13.933Z,0
2022-11-02T01:56:29.054Z,0
2022-11-02T01:57:44.355Z,0
2022-11-02T01:59:00.446Z,0
2022-11-02T02:00:16.718Z,0
2022-11-02T02:01:32.817Z,0
2022-11-02T02:02:49.109Z,0
2022-11-02T02:04:05.287Z,0
2022-11-02T02:05:21.486Z,0
2022-11-02T02:06:37.667Z,0
2022-11-02T02:07:53.868Z,0
2022-11-02T02:09:10.043Z,0
2022-11-02T02:10:26.248Z,0
2022-11-02T02:11:42.431Z,0
2022-11-02T02:12:58.619Z,0
2022-11-02T02:14:13.823Z,0
2022-11-02T02:15:30.017Z,0
2022-11-02T02:16:46.208Z,0
2022-11-02T02:18:02.381Z,0
2022-11-02T02:19:18.474Z,0
2022-11-02T02:20:34.667Z,0
2022-11-02T02:21:50.965Z,0
2022-11-02T02:23:06.174Z,0
2022-11-02T02:24:21.388Z,0
2022-11-02T02:25:37.465Z,0
2022-11-02T02:26:53.760Z,0
2022-11-02T02:28:08.967Z,0
2022-11-02T02:29:24.175Z,0
2022-11-02T02:30:40.375Z,0
2022-11-02T02:31:56.557Z,0
2022-11-02T02:33:12.737Z,0
2022-11-02T02:34:28.934Z,0
2022-11-02T02:35:45.114Z,0
2022-11-02T02:37:01.312Z,0
2022-11-02T02:38:17.502Z,0
2022-11-02T02:39:33.596Z,0
2022-11-02T02:40:49.888Z,0
2022-11-02T02:42:06.060Z,0
2022-11-02T02:43:22.248Z,0
2022-11-02T02:44:38.441Z,0
2022-11-02T02:45:53.656Z,0
2022-11-02T02:47:09.837Z,0
2022-11-02T02:48:26.036Z,0
2022-11-02T02:49:42.210Z,0
2022-11-02T02:50:58.293Z,0
2022-11-02T02:52:14.600Z,0
2022-11-02T02:53:30.783Z,0
2022-11-02T02:54:45.999Z,0
2022-11-02T02:56:01.198Z,0
2022-11-02T02:57:16.318Z,0
2022-11-02T02:58:31.519Z,0
2022-11-02T02:59:47.809Z,0
2022-11-02T03:01:04.000Z,0
2022-11-02T03:02:20.204Z,0
2022-11-02T03:03:36.395Z,0
2022-11-02T03:04:52.569Z,0
2022-11-02T03:06:08.773Z,0
2022-11-02T03:07:24.833Z,0
2022-11-02T03:08:41.140Z,0
2022-11-02T03:09:57.326Z,0
2022-11-02T03:11:13.417Z,0
2022-11-02T03:12:29.708Z,0
2022-11-02T03:13:45.890Z,0
2022-11-02T03:15:00.987Z,0
2022-11-02T03:16:17.284Z,0
2022-11-02T03:17:33.477Z,0
2022-11-02T03:18:49.680Z,0
2022-11-02T03:20:05.755Z,0
2022-11-02T03:21:22.041Z,0
2022-11-02T03:22:38.239Z,0
2022-11-02T03:23:53.329Z,0
2022-11-02T03:25:08.651Z,0
2022-11-02T03:26:24.722Z,0
2022-11-02T03:27:40.932Z,0
2022-11-02T03:28:57.104Z,0
2022-11-02T03:30:13.305Z,0
2022-11-02T03:31:29.614Z,0
2022-11-02T03:32:45.802Z,0
2022-11-02T03:34:01.977Z,0
2022-11-02T03:35:18.059Z,0
2022-11-02T03:36:34.351Z,0
2022-11-02T03:37:50.425Z,0
2022-11-02T03:39:06.731Z,0
2022-11-02T03:40:22.937Z,0
2022-11-02T03:41:38.019Z,0
2022-11-02T03:42:54.211Z,0
2022-11-02T03:44:10.505Z,0
2022-11-02T03:45:26.589Z,0
2022-11-02T03:46:42.886Z,0
2022-11-02T03:47:59.083Z,0
2022-11-02T03:49:15.260Z,0
2022-11-02T03:50:30.479Z,0
2022-11-02T03:51:45.696Z,0
2022-11-02T03:53:00.901Z,0
2022-11-02T03:54:15.984Z,0
2022-11-02T03:55:31.330Z,0
2022-11-02T03:56:46.535Z,0
2022-11-02T03:58:02.713Z,0
2022-11-02T03:59:18.908Z,0
2022-11-02T04:00:35.091Z,0
2022-11-02T04:01:51.286Z,0
2022-11-02T04:03:07.484Z,0
2022-11-02T04:04:23.657Z,0
2022-11-02T04:05:39.860Z,0
2022-11-02T04:06:56.047Z,0
2022-11-02T04:08:12.114Z,0
2022-11-02T04:09:28.413Z,0
2022-11-02T04:10:44.608Z,0
2022-11-02T04:12:00.803Z,0
2022-11-02T04:13:15.888Z,0
2022-11-02T04:14:32.189Z,0
2022-11-02T04:15:48.377Z,0
2022-11-02T04:17:04.577Z,0
2022-11-02T04:18:20.773Z,0
2022-11-02T04:19:36.952Z,0
2022-11-02T04:20:53.134Z,0
2022-11-02T04:22:08.365Z,0
2022-11-02T04:23:24.539Z,0
2022-11-02T04:24:39.761Z,0
2022-11-02T04:25:54.966Z,0
2022-11-02T04:27:11.147Z,0
2022-11-02T04:28:26.367Z,0
2022-11-02T04:29:41.583Z,0
2022-11-02T04:30:57.642Z,0
2022-11-02T04:32:13.833Z,0
2022-11-02T04:33:30.147Z,0
2022-11-02T04:34:46.200Z,0
2022-11-02T04:36:02.522Z,0
2022-11-02T04:37:18.720Z,0
2022-11-02T04:38:34.908Z,0
2022-11-02T04:39:51.098Z,0
2022-11-02T04:41:07.283Z,0
2022-11-02T04:42:23.470Z,0
2022-11-02T04:43:39.650Z,0
2022-11-02T04:44:55.845Z,0
2022-11-02T04:46:11.061Z,0
2022-11-02T04:47:27.248Z,0
2022-11-02T04:48:43.432Z,0
2022-11-02T04:49:59.614Z,0
2022-11-02T04:51:15.804Z,0
2022-11-02T04:52:31.995Z,0
2022-11-02T04:53:47.075Z,0
2022-11-02T04:55:02.425Z,0
2022-11-02T04:56:17.620Z,0
2022-11-02T04:57:33.678Z,0
2022-11-02T04:58:49.043Z,0
2022-11-02T05:00:04.238Z,0
2022-11-02T05:01:20.429Z,0
2022-11-02T05:02:36.615Z,0
2022-11-02T05:03:52.812Z,0
2022-11-02T05:05:08.857Z,0
2022-11-02T05:06:25.056Z,0
2022-11-02T05:07:41.381Z,0
2022-11-02T05:08:57.556Z,0
2022-11-02T05:10:13.608Z,0
2022-11-02T05:11:29.945Z,0
2022-11-02T05:12:45.980Z,0
2022-11-02T05:14:02.325Z,0
2022-11-02T05:15:18.507Z,0
2022-11-02T05:16:33.578Z,0
2022-11-02T05:17:49.909Z,0
2022-11-02T05:19:06.101Z,0
2022-11-02T05:20:22.275Z,0
2022-11-02T05:21:38.466Z,0
2022-11-02T05:22:54.524Z,0
2022-11-02T05:24:10.855Z,0
2022-11-02T05:25:26.069Z,0
2022-11-02T05:26:41.276Z,0
2022-11-02T05:27:57.464Z,0
2022-11-02T05:29:13.646Z,0
2022-11-02T05:30:29.832Z,0
2022-11-02T05:31:45.883Z,0
2022-11-02T05:33:02.206Z,0
2022-11-02T05:34:18.400Z,0
2022-11-02T05:35:34.454Z,0
2022-11-02T05:36:50.776Z,0
2022-11-02T05:38:06.971Z,0
2022-11-02T05:39:23.013Z,0
2022-11-02T05:40:39.346Z,4
2022-11-02T05:41:55.532Z,4
2022-11-02T05:43:10.751Z,4
2022-11-02T05:44:26.929Z,4
2022-11-02T05:45:43.116Z,4
2022-11-02T05:46:59.165Z,4
2022-11-02T05:48:15.354Z,8
2022-11-02T05:49:31.688Z,8
2022-11-02T05:50:47.718Z,12
2022-11-02T05:52:03.099Z,12
2022-11-02T05:53:18.302Z,16
2022-11-02T05:54:33.518Z,20
2022-11-02T05:55:48.719Z,24
2022-11-02T05:57:04.913Z,28
2022-11-02T05:58:21.097Z,32
2022-11-02T05:59:37.296Z,36
2022-11-02T06:00:53.478Z,40
2022-11-02T06:02:09.515Z,44
2022-11-02T06:03:25.856Z,48
2022-11-02T06:04:42.036Z,56
2022-11-02T06:05:58.222Z,60
2022-11-02T06:07:14.413Z,68
2022-11-02T06:08:30.604Z,72
2022-11-02T06:09:46.635Z,76
2022-11-02T06:11:02.976Z,84
2022-11-02T06:12:18.194Z,96
2022-11-02T06:13:34.227Z,108
2022-11-02T06:14:50.578Z,128
2022-11-02T06:16:06.760Z,148
2022-11-02T06:17:22.950Z,168
2022-11-02T06:18:38.979Z,176
2022-11-02T06:19:55.317Z,172
2022-11-02T06:21:10.544Z,168
2022-11-02T06:22:25.738Z,172
2022-11-02T06:23:40.818Z,180
2022-11-02T06:24:56.179Z,192
2022-11-02T06:26:11.239Z,208
2022-11-02T06:27:26.600Z,224
2022-11-02T06:28:42.618Z,236
2022-11-02T06:29:58.960Z,256
2022-11-02T06:31:15.153Z,264
2022-11-02T06:32:31.199Z,268
2022-11-02T06:33:47.541Z,276
2022-11-02T06:35:03.577Z,280
2022-11-02T06:36:19.911Z,288
2022-11-02T06:37:36.097Z,292
2022-11-02T06:38:52.123Z,300
2022-11-02T06:40:08.323Z,308
2022-11-02T06:41:24.663Z,316
2022-11-02T06:42:40.708Z,324
2022-11-02T06:43:56.074Z,328
2022-11-02T06:45:12.085Z,336
2022-11-02T06:46:28.274Z,344
2022-11-02T06:47:44.641Z,348
2022-11-02T06:49:00.816Z,356
2022-11-02T06:50:17.016Z,364
2022-11-02T06:51:33.036Z,372
2022-11-02T06:52:48.408Z,376
2022-11-02T06:54:03.628Z,384
2022-11-02T06:55:18.843Z,384
2022-11-02T06:56:34.042Z,372
2022-11-02T06:57:50.226Z,388
2022-11-02T06:59:06.253Z,396
2022-11-02T07:00:22.451Z,416
2022-11-02T07:01:38.807Z,444
2022-11-02T07:02:54.834Z,424
2022-11-02T07:04:11.003Z,420
2022-11-02T07:05:27.365Z,456
2022-11-02T07:06:43.394Z,428
2022-11-02T07:07:59.737Z,464
2022-11-02T07:09:15.764Z,496
2022-11-02T07:10:32.106Z,504
2022-11-02T07:11:48.133Z,520
2022-11-02T07:13:03.509Z,524
2022-11-02T07:14:19.531Z,528
2022-11-02T07:15:35.886Z,528
2022-11-02T07:16:52.074Z,512
2022-11-02T07:18:08.096Z,484
2022-11-02T07:19:24.446Z,476
2022-11-02T07:20:40.623Z,484
2022-11-02T07:21:55.835Z,492
2022-11-02T07:23:11.054Z,524
2022-11-02T07:24:27.058Z,580
2022-11-02T07:25:43.422Z,624
2022-11-02T07:26:59.602Z,656
2022-11-02T07:28:15.792Z,668
2022-11-02T07:29:31.986Z,676
2022-11-02T07:30:48.179Z,684
2022-11-02T07:32:04.368Z,688
2022-11-02T07:33:20.540Z,696
2022-11-02T07:34:36.730Z,700
2022-11-02T07:35:52.911Z,704
2022-11-02T07:37:08.941Z,716
2022-11-02T07:38:25.290Z,728
2022-11-02T07:39:40.498Z,744
2022-11-02T07:40:56.506Z,756
2022-11-02T07:42:12.696Z,760
2022-11-02T07:43:29.055Z,768
2022-11-02T07:44:45.253Z,780
2022-11-02T07:46:01.425Z,800
2022-11-02T07:47:17.622Z,828
2022-11-02T07:48:32.830Z,856
2022-11-02T07:49:48.038Z,876
2022-11-02T07:51:04.229Z,896
2022-11-02T07:52:20.419Z,916
2022-11-02T07:53:36.419Z,936
2022-11-02T07:56:08.809Z,1072
2022-11-02T07:57:24.984Z,1148
2022-11-02T07:58:41.166Z,1144
2022-11-02T07:59:57.546Z,1308
2022-11-02T08:01:13.716Z,1568
2022-11-02T08:02:29.914Z,1840
2022-11-02T08:03:45.927Z,1948
2022-11-02T08:05:02.294Z,1628
2022-11-02T08:06:17.488Z,1448
2022-11-02T08:07:33.491Z,1568
2022-11-02T08:08:49.856Z,1832
2022-11-02T08:10:06.056Z,2084
2022-11-02T08:11:22.231Z,2244
2022-11-02T08:12:38.426Z,2192
2022-11-02T08:13:54.617Z,1920
2022-11-02T08:15:10.797Z,1660
2022-11-02T08:16:26.015Z,1592
2022-11-02T08:17:41.210Z,1412
2022-11-02T08:18:56.242Z,1208
2022-11-02T08:20:11.447Z,1104
2022-11-02T08:21:26.848Z,1032
2022-11-02T08:22:41.863Z,1216
2022-11-02T08:23:58.054Z,1608
2022-11-02T08:25:14.420Z,1900
2022-11-02T08:26:30.428Z,1908
2022-11-02T08:27:46.805Z,2016
2022-11-02T08:29:02.979Z,2348
2022-11-02T08:30:19.176Z,2784
2022-11-02T08:31:35.366Z,2756
2022-11-02T08:32:51.554Z,2556
2022-11-02T08:34:07.556Z,2532
2022-11-02T08:35:23.933Z,2436
2022-11-02T08:36:40.113Z,2372
2022-11-02T08:37:56.288Z,2764
2022-11-02T08:39:11.499Z,2888
2022-11-02T08:40:27.692Z,2416
2022-11-02T08:41:43.879Z,1952
2022-11-02T08:43:00.054Z,1632
2022-11-02T08:44:16.242Z,1376
2022-11-02T08:45:32.243Z,1588
2022-11-02T08:46:48.440Z,1736
2022-11-02T08:48:03.847Z,1452
2022-11-02T08:49:18.865Z,1304
2022-11-02T08:50:34.263Z,1668
2022-11-02T08:51:49.466Z,1876
2022-11-02T08:53:05.651Z,1412
2022-11-02T08:54:21.638Z,1284
2022-11-02T08:55:37.825Z,1500
2022-11-02T08:56:54.030Z,1500
2022-11-02T08:58:10.205Z,1592
2022-11-02T08:59:26.584Z,2040
2022-11-02T09:00:42.776Z,2340
2022-11-02T09:01:58.968Z,2104
2022-11-02T09:03:15.151Z,2064
2022-11-02T09:04:31.324Z,2132
2022-11-02T09:05:47.521Z,2316
2022-11-02T09:07:03.710Z,2116
2022-11-02T09:08:18.731Z,1876
2022-11-02T09:09:35.102Z,1800
2022-11-02T09:10:51.096Z,1616
2022-11-02T09:12:07.469Z,1696
2022-11-02T09:13:23.660Z,1876
2022-11-02T09:14:39.848Z,1424
2022-11-02T09:15:56.040Z,1428
2022-11-02T09:17:11.054Z,1448
2022-11-02T09:18:26.453Z,2044
2022-11-02T09:19:41.478Z,2712
2022-11-02T09:20:56.867Z,2868
2022-11-02T09:22:12.096Z,1780
2022-11-02T09:23:27.288Z,1432
2022-11-02T09:24:43.470Z,1216
2022-11-02T09:25:59.675Z,1780
2022-11-02T09:27:15.860Z,1656
2022-11-02T09:28:32.043Z,1244
2022-11-02T09:29:48.233Z,1212
2022-11-02T09:31:04.410Z,1140
2022-11-02T09:32:20.399Z,1272
2022-11-02T09:33:36.796Z,1416
2022-11-02T09:34:52.977Z,1640
2022-11-02T09:36:08.965Z,1704
2022-11-02T09:37:25.346Z,1804
2022-11-02T09:38:41.536Z,1852
2022-11-02T09:39:56.741Z,1876
2022-11-02T09:41:12.939Z,1940
2022-11-02T09:42:28.910Z,1968
2022-11-02T09:43:45.301Z,1892
2022-11-02T09:45:01.492Z,2072
2022-11-02T09:46:17.677Z,2136
2022-11-02T09:47:33.874Z,2152
2022-11-02T09:48:48.884Z,2124
2022-11-02T09:50:04.091Z,2244
2022-11-02T09:51:20.272Z,2292
2022-11-02T09:52:36.669Z,2292
2022-11-02T09:53:52.840Z,2268
2022-11-02T09:55:09.037Z,2256
2022-11-02T09:56:25.028Z,2276
2022-11-02T09:57:41.206Z,2280
2022-11-02T09:58:57.402Z,2272
2022-11-02T10:00:13.785Z,2272
2022-11-02T10:01:29.770Z,2268
2022-11-02T10:02:46.167Z,2276
2022-11-02T10:04:02.355Z,2280
2022-11-02T10:05:18.335Z,2272
2022-11-02T10:06:33.738Z,2344
2022-11-02T10:07:49.932Z,2448
2022-11-02T10:09:06.109Z,2492
2022-11-02T10:10:22.301Z,2512
2022-11-02T10:11:38.483Z,2564
2022-11-02T10:12:54.471Z,2636
2022-11-02T10:14:10.662Z,2688
2022-11-02T10:15:26.079Z,2772
2022-11-02T10:16:41.061Z,2844
2022-11-02T10:17:56.275Z,2892
2022-11-02T10:19:11.690Z,2932
2022-11-02T10:20:27.888Z,2956
2022-11-02T10:21:43.859Z,3000
2022-11-02T10:23:00.250Z,3056
2022-11-02T10:24:16.438Z,3120
2022-11-02T10:25:32.635Z,3180
2022-11-02T10:26:48.823Z,3240
2022-11-02T10:28:04.803Z,3296
2022-11-02T10:29:21.188Z,3352
2022-11-02T10:30:37.380Z,3408
2022-11-02T10:31:53.366Z,3496
2022-11-02T10:33:09.753Z,3596
2022-11-02T10:34:25.935Z,3652
2022-11-02T10:35:40.943Z,3680
2022-11-02T10:36:57.336Z,3796
2022-11-02T10:38:13.512Z,3880
2022-11-02T10:39:29.488Z,4104
2022-11-02T10:40:45.889Z,3988
2022-11-02T10:42:02.079Z,4160
2022-11-02T10:43:18.270Z,4092
2022-11-02T10:44:33.477Z,4504
2022-11-02T10:45:48.681Z,4132
2022-11-02T10:47:03.892Z,4140
2022-11-02T10:48:19.097Z,4168
2022-11-02T10:49:35.289Z,4264
2022-11-02T10:50:51.474Z,4204
2022-11-02T10:52:07.443Z,4292
2022-11-02T10:53:23.847Z,4376
2022-11-02T10:54:40.037Z,4356
2022-11-02T10:55:56.015Z,4432
2022-11-02T10:57:12.418Z,4528
2022-11-02T10:58:28.609Z,4472
2022-11-02T10:59:44.801Z,4548
2022-11-02T11:01:00.974Z,4636
2022-11-02T11:02:17.173Z,4688
2022-11-02T11:03:33.356Z,4752
2022-11-02T11:04:48.344Z,4768
2022-11-02T11:06:04.526Z,4824
2022-11-02T11:07:20.941Z,4892
2022-11-02T11:08:37.112Z,4940
2022-11-02T11:09:53.298Z,5032
2022-11-02T11:11:09.490Z,5148
2022-11-02T11:12:25.680Z,5336
2022-11-02T11:13:40.679Z,5528
2022-11-02T11:14:56.092Z,6180
2022-11-02T11:16:11.318Z,6372
2022-11-02T11:17:26.301Z,7912
2022-11-02T11:18:42.700Z,7480
2022-11-02T11:19:58.884Z,3208
2022-11-02T11:21:14.866Z,2720
2022-11-02T11:22:31.000Z,2860
2022-11-02T11:23:47.458Z,3204
2022-11-02T11:25:03.645Z,3584
2022-11-02T11:26:19.604Z,6756
2022-11-02T11:27:36.006Z,2208
2022-11-02T11:28:52.197Z,2620
2022-11-02T11:30:08.174Z,7260
2022-11-02T11:31:24.570Z,2100
2022-11-02T11:32:40.762Z,1616
2022-11-02T11:33:55.754Z,1336
2022-11-02T11:35:11.924Z,980
2022-11-02T11:36:28.130Z,1260
2022-11-02T11:37:44.302Z,1060
2022-11-02T11:39:00.712Z,980
2022-11-02T11:40:16.903Z,1116
2022-11-02T11:41:33.085Z,1668
2022-11-02T11:42:48.091Z,1852
2022-11-02T11:44:03.291Z,1332
2022-11-02T11:45:18.728Z,1036
2022-11-02T11:46:33.937Z,2956
2022-11-02T11:47:49.885Z,4604
2022-11-02T11:49:06.304Z,3692
2022-11-02T11:50:22.493Z,2456
2022-11-02T11:51:38.687Z,1036
2022-11-02T11:52:54.641Z,680
2022-11-02T11:54:11.061Z,960
2022-11-02T11:55:27.005Z,1320
2022-11-02T11:56:43.422Z,1452
2022-11-02T11:57:59.623Z,2572
2022-11-02T11:59:15.567Z,1844
2022-11-02T12:00:31.985Z,2068
2022-11-02T12:01:48.187Z,2896
2022-11-02T12:03:03.384Z,1748
2022-11-02T12:04:19.339Z,940
2022-11-02T12:05:35.523Z,772
2022-11-02T12:06:51.715Z,636
2022-11-02T12:08:07.892Z,656
2022-11-02T12:09:24.313Z,820
2022-11-02T12:10:40.515Z,664
2022-11-02T12:11:55.709Z,572
2022-11-02T12:13:10.916Z,500
2022-11-02T12:14:26.127Z,712
2022-11-02T12:15:41.112Z,1452
2022-11-02T12:16:57.293Z,2068
2022-11-02T12:18:13.707Z,2872
2022-11-02T12:19:29.894Z,2732
2022-11-02T12:20:45.856Z,2664
2022-11-02T12:22:02.044Z,2788
2022-11-02T12:23:18.457Z,2316
2022-11-02T12:24:34.409Z,2220
2022-11-02T12:25:50.831Z,2756
2022-11-02T12:27:07.026Z,2948
2022-11-02T12:28:22.974Z,4660
2022-11-02T12:29:39.160Z,4692
2022-11-02T12:30:55.596Z,4288
2022-11-02T12:32:10.794Z,4652
2022-11-02T12:33:26.740Z,4464
2022-11-02T12:34:43.157Z,3288
2022-11-02T12:35:59.107Z,2304
2022-11-02T12:37:15.492Z,2704
2022-11-02T12:38:31.689Z,3192
2022-11-02T12:39:47.868Z,2488
2022-11-02T12:41:03.092Z,2808
2022-11-02T12:42:18.283Z,2948
2022-11-02T12:43:34.466Z,3384
2022-11-02T12:44:50.673Z,2984
2022-11-02T12:46:06.844Z,3160
2022-11-02T12:47:23.042Z,2696
2022-11-02T12:48:39.221Z,2412
2022-11-02T12:49:55.412Z,2460
2022-11-02T12:51:11.603Z,2864
2022-11-02T12:52:27.787Z,3604
2022-11-02T12:53:43.975Z,2940
2022-11-02T12:55:00.161Z,2988
2022-11-02T12:56:16.340Z,4128
2022-11-02T12:57:32.535Z,4128
2022-11-02T12:58:47.726Z,3516
2022-11-02T13:00:03.934Z,3216
2022-11-02T13:01:20.113Z,3308
2022-11-02T13:02:36.298Z,2680
2022-11-02T13:03:52.492Z,1824
2022-11-02T13:05:08.678Z,2300
2022-11-02T13:06:24.871Z,3420
2022-11-02T13:07:40.074Z,3192
2022-11-02T13:08:55.272Z,2556
2022-11-02T13:10:10.493Z,2664
2022-11-02T13:11:25.682Z,2600
2022-11-02T13:12:40.903Z,2232
2022-11-02T13:13:56.113Z,2632
2022-11-02T13:15:11.332Z,2984
2022-11-02T13:16:26.537Z,2448
2022-11-02T13:17:42.714Z,2716
2022-11-02T13:18:58.905Z,2924
2022-11-02T13:20:14.118Z,2312
2022-11-02T13:21:29.322Z,1800
2022-11-02T13:22:44.542Z,2444
2022-11-02T13:23:59.744Z,3396
2022-11-02T13:25:15.940Z,2692
2022-11-02T13:26:32.116Z,1940
2022-11-02T13:27:48.303Z,1564
2022-11-02T13:29:04.497Z,1392
2022-11-02T13:30:20.694Z,1352
2022-11-02T13:31:36.865Z,1388
2022-11-02T13:32:53.048Z,1316
2022-11-02T13:34:09.250Z,1400
2022-11-02T13:35:25.434Z,1348
2022-11-02T13:36:41.623Z,1488
2022-11-02T13:37:57.808Z,1408
2022-11-02T13:39:13.989Z,1384
2022-11-02T13:40:29.207Z,1352
2022-11-02T13:41:45.399Z,1640
2022-11-02T13:43:01.567Z,1728
2022-11-02T13:44:17.757Z,1372
2022-11-02T13:45:33.949Z,1316
2022-11-02T13:46:50.128Z,1304
2022-11-02T13:48:06.324Z,1288
2022-11-02T13:49:21.000Z,1256
2022-11-02T13:50:36.720Z,1252
2022-11-02T13:51:51.952Z,1300
2022-11-02T13:53:07.143Z,1348
2022-11-02T13:54:23.359Z,1292
2022-11-02T13:55:39.541Z,1256
2022-11-02T13:56:55.729Z,1236
2022-11-02T13:58:11.908Z,1212
2022-11-02T13:59:28.083Z,1244
2022-11-02T14:00:44.279Z,1260
2022-11-02T14:02:00.472Z,1260
2022-11-02T14:03:16.666Z,1220
2022-11-02T14:04:32.862Z,1160
2022-11-02T14:05:49.031Z,1160
2022-11-02T14:07:05.194Z,1116
2022-11-02T14:08:21.415Z,1120
2022-11-02T14:09:36.594Z,1108
2022-11-02T14:10:52.805Z,1100
2022-11-02T14:12:08.993Z,1088
2022-11-02T14:13:25.168Z,1028
2022-11-02T14:14:41.370Z,988
2022-11-02T14:15:57.558Z,1004
2022-11-02T14:17:13.741Z,1048
2022-11-02T14:18:28.943Z,1452
2022-11-02T14:19:44.160Z,1580
2022-11-02T14:20:59.352Z,1524
2022-11-02T14:22:14.559Z,1700
2022-11-02T14:23:30.740Z,1596
2022-11-02T14:24:46.956Z,1868
2022-11-02T14:26:03.131Z,1300
2022-11-02T14:27:19.317Z,1268
2022-11-02T14:28:35.514Z,1604
2022-11-02T14:29:51.701Z,1116
2022-11-02T14:31:07.853Z,1168
2022-11-02T14:32:24.077Z,1100
2022-11-02T14:33:40.260Z,1168
2022-11-02T14:34:56.423Z,988
2022-11-02T14:36:12.626Z,980
2022-11-02T14:37:28.817Z,984
2022-11-02T14:38:43.998Z,864
2022-11-02T14:40:00.196Z,552
2022-11-02T14:41:16.411Z,472
2022-11-02T14:42:32.569Z,544
2022-11-02T14:43:48.757Z,764
2022-11-02T14:45:04.964Z,1036
2022-11-02T14:46:21.144Z,1336
2022-11-02T14:47:36.366Z,1360
2022-11-02T14:48:51.575Z,1096
2022-11-02T14:50:07.728Z,768
2022-11-02T14:51:22.942Z,628
2022-11-02T14:52:38.152Z,560
2022-11-02T14:53:54.325Z,528
2022-11-02T14:55:10.541Z,512
2022-11-02T14:56:26.729Z,492
2022-11-02T14:57:42.926Z,472
2022-11-02T14:58:59.076Z,456
2022-11-02T15:00:15.290Z,448
2022-11-02T15:01:31.491Z,428
2022-11-02T15:02:47.639Z,416
2022-11-02T15:04:03.866Z,420
2022-11-02T15:05:20.023Z,404
2022-11-02T15:06:36.226Z,376
2022-11-02T15:07:52.411Z,356
2022-11-02T15:09:07.619Z,348
2022-11-02T15:10:23.781Z,332
2022-11-02T15:11:40.001Z,316
2022-11-02T15:12:56.150Z,300
2022-11-02T15:14:12.370Z,288
2022-11-02T15:15:28.552Z,272
2022-11-02T15:16:44.720Z,256
2022-11-02T15:17:59.935Z,240
2022-11-02T15:19:15.161Z,228
2022-11-02T15:20:31.356Z,212
2022-11-02T15:21:46.526Z,200
2022-11-02T15:23:01.767Z,188
2022-11-02T15:24:17.963Z,176
2022-11-02T15:25:34.144Z,160
2022-11-02T15:26:50.335Z,148
2022-11-02T15:28:06.478Z,132
2022-11-02T15:29:22.705Z,120
2022-11-02T15:30:38.868Z,112
2022-11-02T15:31:55.080Z,104
2022-11-02T15:33:11.239Z,92
2022-11-02T15:34:27.464Z,84
2022-11-02T15:35:43.642Z,76
2022-11-02T15:36:59.835Z,64
2022-11-02T15:38:16.022Z,56
2022-11-02T15:39:31.188Z,48
2022-11-02T15:40:47.374Z,44
2022-11-02T15:42:03.604Z,40
2022-11-02T15:43:19.737Z,32
2022-11-02T15:44:35.981Z,28
2022-11-02T15:45:52.167Z,24
2022-11-02T15:47:08.344Z,16
2022-11-02T15:48:23.551Z,16
2022-11-02T15:49:38.768Z,12
2022-11-02T15:50:54.910Z,12
2022-11-02T15:52:10.000Z,8
2022-11-02T15:53:25.337Z,8
2022-11-02T15:54:41.524Z,4
2022-11-02T15:55:57.740Z,4
2022-11-02T15:57:13.928Z,4
2022-11-02T15:58:30.081Z,4
2022-11-02T15:59:46.253Z,4
2022-11-02T16:01:02.497Z,0
2022-11-02T16:02:18.629Z,0
2022-11-02T16:03:34.864Z,0
2022-11-02T16:04:51.054Z,0
2022-11-02T16:06:07.243Z,0
2022-11-02T16:07:23.387Z,0
2022-11-02T16:08:39.570Z,0
2022-11-02T16:09:54.823Z,0
2022-11-02T16:11:11.004Z,0
2022-11-02T16:12:27.196Z,0
2022-11-02T16:13:43.386Z,0
2022-11-02T16:14:59.579Z,0
2022-11-02T16:16:15.760Z,0
2022-11-02T16:17:31.950Z,0
2022-11-02T16:18:47.167Z,0
2022-11-02T16:20:02.373Z,0
2022-11-02T16:21:18.541Z,0
2022-11-02T16:22:33.759Z,0
2022-11-02T16:23:48.965Z,0
2022-11-02T16:25:05.111Z,0
2022-11-02T16:26:21.335Z,0
2022-11-02T16:27:37.524Z,0
2022-11-02T16:28:53.724Z,0
2022-11-02T16:30:09.910Z,0
2022-11-02T16:31:26.084Z,0
2022-11-02T16:32:42.288Z,0
2022-11-02T16:33:58.405Z,0
2022-11-02T16:35:14.660Z,0
2022-11-02T16:36:30.833Z,0
2022-11-02T16:37:47.023Z,0
2022-11-02T16:39:03.220Z,0
2022-11-02T16:40:19.407Z,0
2022-11-02T16:41:34.564Z,0
2022-11-02T16:42:50.786Z,0
2022-11-02T16:44:06.927Z,0
2022-11-02T16:45:23.116Z,0
2022-11-02T16:46:39.301Z,0
2022-11-02T16:47:55.555Z,0
2022-11-02T16:49:10.769Z,0
2022-11-02T16:50:25.961Z,0
2022-11-02T16:51:42.150Z,0
2022-11-02T16:52:57.372Z,0
2022-11-02T16:54:12.574Z,0
2022-11-02T16:55:28.708Z,0
2022-11-02T16:56:44.946Z,0
2022-11-02T16:58:01.138Z,0
2022-11-02T16:59:17.269Z,0
2022-11-02T17:00:33.514Z,0
2022-11-02T17:01:49.717Z,0
2022-11-02T17:03:05.847Z,0
2022-11-02T17:04:22.093Z,0
2022-11-02T17:05:38.270Z,0
2022-11-02T17:06:54.473Z,0
2022-11-02T17:08:10.656Z,0
2022-11-02T17:09:26.839Z,0
2022-11-02T17:10:41.993Z,0
2022-11-02T17:11:58.186Z,0
2022-11-02T17:13:14.370Z,0
2022-11-02T17:14:30.615Z,0
2022-11-02T17:15:46.748Z,0
2022-11-02T17:17:02.997Z,0
2022-11-02T17:18:19.187Z,0
2022-11-02T17:19:34.340Z,0
2022-11-02T17:20:49.610Z,0
2022-11-02T17:22:05.737Z,0
2022-11-02T17:23:21.011Z,0
2022-11-02T17:24:36.207Z,0
2022-11-02T17:25:52.345Z,0
2022-11-02T17:27:08.593Z,0
2022-11-02T17:28:24.773Z,0
2022-11-02T17:29:40.975Z,0
2022-11-02T17:30:57.102Z,0
2022-11-02T17:32:13.353Z,0
2022-11-02T17:33:29.466Z,0
2022-11-02T17:34:45.729Z,0
2022-11-02T17:36:01.905Z,0
2022-11-02T17:37:17.067Z,0
2022-11-02T17:38:33.302Z,0
2022-11-02T17:39:49.497Z,0
2022-11-02T17:41:05.621Z,0
2022-11-02T17:42:21.887Z,0
2022-11-02T17:43:38.067Z,0
2022-11-02T17:44:54.246Z,0
2022-11-02T17:46:10.448Z,0
2022-11-02T17:47:26.624Z,0
2022-11-02T17:48:42.815Z,0